Time;durP1;ratioP1;P1;durP2;ratioP2;P2;SDS_P1;SDS_P2;PMS_P1;PMS_P2;Temp;Humidity;BMP_temperature;BMP_pressure;BME280_temperature;BME280_humidity;BME280_pressure;Samples;Min_cycle;Max_cycle;Signal;HPM_P1;HPM_P2
2021/07/13 00:01:54;;;;;;;;;;;20.00;99.90;;;;;;5066599;28;19977;-66
2021/07/13 00:04:21;;;;;;;;;;;20.10;99.90;;;;;;5089167;28;19931;-66
2021/07/13 00:06:48;;;;;;;;;;;20.00;99.90;;;;;;5069342;28;19982;-66
2021/07/13 00:09:15;;;;;;;;;;;20.00;99.90;;;;;;5089196;28;20003;-66
2021/07/13 00:11:42;;;;;;;;;;;20.00;99.90;;;;;;5088020;28;19986;-66
2021/07/13 00:14:08;;;;;;;;;;;20.00;99.90;;;;;;5069827;28;19950;-66
2021/07/13 00:16:35;;;;;;;;;;;20.00;99.90;;;;;;5085498;28;20017;-66
2021/07/13 00:19:02;;;;;;;;;;;20.00;99.90;;;;;;5084271;28;20359;-66
2021/07/13 00:21:29;;;;;;;;;;;19.90;99.90;;;;;;5087176;28;19928;-66
2021/07/13 00:23:55;;;;;;;;;;;19.90;99.90;;;;;;5086936;28;20422;-66
2021/07/13 00:26:22;;;;;;;;;;;19.90;99.90;;;;;;5081211;28;20364;-66
2021/07/13 00:28:49;;;;;;;;;;;19.90;99.90;;;;;;5079288;28;19979;-66
2021/07/13 00:31:16;;;;;;;;;;;19.90;99.90;;;;;;5067806;28;19971;-66
2021/07/13 00:33:42;;;;;;;;;;;19.90;99.90;;;;;;5067139;28;19931;-66
2021/07/13 00:36:09;;;;;;;;;;;19.90;99.90;;;;;;5066939;28;20337;-66
2021/07/13 00:38:36;;;;;;;;;;;19.80;99.90;;;;;;5084340;28;19928;-66
2021/07/13 00:41:02;;;;;;;;;;;19.80;99.90;;;;;;5089800;28;20018;-66
2021/07/13 00:43:29;;;;;;;;;;;19.80;99.90;;;;;;5087643;28;20371;-66
2021/07/13 00:45:56;;;;;;;;;;;19.80;99.90;;;;;;5087030;28;19963;-66
2021/07/13 00:48:23;;;;;;;;;;;19.80;99.90;;;;;;5068507;28;20023;-66
2021/07/13 00:50:50;;;;;;;;;;;19.80;99.90;;;;;;5088420;28;19924;-66
2021/07/13 00:53:17;;;;;;;;;;;19.80;99.90;;;;;;5086234;28;19928;-66
2021/07/13 00:55:44;;;;;;;;;;;19.80;99.90;;;;;;5063673;28;19990;-66
2021/07/13 00:58:10;;;;;;;;;;;19.80;99.90;;;;;;5081732;28;20315;-66
2021/07/13 01:00:37;;;;;;;;;;;19.70;99.90;;;;;;5082645;28;20231;-66
2021/07/13 01:03:05;;;;;;;;;;;19.70;99.90;;;;;;5083137;28;19972;-66
2021/07/13 01:05:33;;;;;;;;;;;19.70;99.90;;;;;;5083324;28;19924;-66
2021/07/13 01:08:00;;;;;;;;;;;19.70;99.90;;;;;;5088408;28;19987;-66
2021/07/13 01:10:26;;;;;;;;;;;19.60;99.90;;;;;;5091530;28;20009;-66
2021/07/13 01:13:02;;;;;;;;;;;19.60;99.90;;;;;;5085617;28;20112;-66
2021/07/13 01:15:32;;;;;;;;;;;19.70;99.90;;;;;;5062627;28;19972;-66
2021/07/13 01:18:02;;;;;;;;;;;19.70;99.90;;;;;;5084479;28;19959;-66
2021/07/13 01:20:37;;;;;;;;;;;19.70;99.90;;;;;;5091132;28;19949;-66
2021/07/13 01:23:04;;;;;;;;;;;19.70;99.90;;;;;;5062592;28;20015;-66
2021/07/13 01:25:41;;;;;;;;;;;19.70;99.90;;;;;;5067303;28;19924;-66
2021/07/13 01:28:12;;;;;;;;;;;19.70;99.90;;;;;;5079859;28;20298;-66
2021/07/13 01:30:41;;;;;;;;;;;19.70;99.90;;;;;;5086270;28;19958;-66
2021/07/13 01:33:10;;;;;;;;;;;19.70;99.90;;;;;;5085353;28;19977;-66
2021/07/13 01:36:04;;;;;;;;;;;19.70;99.90;;;;;;5085327;28;19997;-66
2021/07/13 01:38:33;;;;;;;;;;;19.70;99.90;;;;;;5076477;28;20337;-66
2021/07/13 01:41:01;;;;;;;;;;;19.60;99.90;;;;;;5081726;28;20287;-66
2021/07/13 01:43:29;;;;;;;;;;;19.60;99.90;;;;;;5068250;28;19924;-66
2021/07/13 01:45:57;;;;;;;;;;;19.50;99.90;;;;;;5081310;28;19946;-66
2021/07/13 01:48:27;;;;;;;;;;;19.50;99.90;;;;;;5082569;28;20004;-66
2021/07/13 01:50:54;;;;;;;;;;;19.50;99.90;;;;;;5063310;28;19967;-66
2021/07/13 01:53:22;;;;;;;;;;;19.50;99.90;;;;;;5086259;28;20017;-66
2021/07/13 01:55:49;;;;;;;;;;;19.50;99.90;;;;;;5071382;28;20000;-66
2021/07/13 01:58:18;;;;;;;;;;;19.50;99.90;;;;;;5069079;28;20423;-66
2021/07/13 02:00:45;;;;;;;;;;;19.50;99.90;;;;;;5091877;28;20330;-66
2021/07/13 02:03:12;;;;;;;;;;;19.50;99.90;;;;;;5066371;28;20280;-66
2021/07/13 02:05:39;;;;;;;;;;;19.50;99.90;;;;;;5067119;28;19975;-66
2021/07/13 02:08:06;;;;;;;;;;;19.50;99.90;;;;;;5065908;28;20400;-66
2021/07/13 02:10:34;;;;;;;;;;;19.50;99.90;;;;;;5067603;28;19928;-66
2021/07/13 02:13:05;;;;;;;;;;;19.50;99.90;;;;;;5067569;28;19982;-66
2021/07/13 02:15:31;;;;;;;;;;;19.50;99.90;;;;;;5083684;28;19949;-66
2021/07/13 02:17:58;;;;;;;;;;;19.40;99.90;;;;;;5082288;28;19924;-66
2021/07/13 02:20:25;;;;;;;;;;;19.40;99.90;;;;;;5090269;28;20333;-66
2021/07/13 02:22:51;;;;;;;;;;;19.40;99.90;;;;;;5088932;28;20015;-66
2021/07/13 02:25:20;;;;;;;;;;;19.40;99.90;;;;;;5067963;28;19967;-66
2021/07/13 02:27:51;;;;;;;;;;;19.40;99.90;;;;;;5081942;28;19924;-66
2021/07/13 02:30:18;;;;;;;;;;;19.40;99.90;;;;;;5082642;28;19987;-66
2021/07/13 02:32:54;;;;;;;;;;;19.50;99.90;;;;;;5069095;28;20325;-66
2021/07/13 02:35:26;;;;;;;;;;;19.40;99.90;;;;;;5085284;28;19925;-66
2021/07/13 02:37:52;;;;;;;;;;;19.40;99.90;;;;;;5072512;28;19924;-66
2021/07/13 02:40:19;;;;;;;;;;;19.40;99.90;;;;;;5083949;28;20335;-66
2021/07/13 02:42:47;;;;;;;;;;;19.30;99.90;;;;;;5088831;28;19967;-66
2021/07/13 02:45:15;;;;;;;;;;;19.30;99.90;;;;;;5089477;28;19966;-66
2021/07/13 02:47:43;;;;;;;;;;;19.30;99.90;;;;;;5087481;28;20074;-66
2021/07/13 02:50:10;;;;;;;;;;;19.20;99.90;;;;;;5091084;28;19962;-66
2021/07/13 02:52:38;;;;;;;;;;;19.20;99.90;;;;;;5069891;28;19955;-66
2021/07/13 02:55:15;;;;;;;;;;;19.20;99.90;;;;;;5089136;28;19967;-66
2021/07/13 02:57:43;;;;;;;;;;;19.20;99.90;;;;;;5083479;28;20467;-66
2021/07/13 03:00:11;;;;;;;;;;;19.20;99.90;;;;;;5086190;28;19967;-66
2021/07/13 03:02:39;;;;;;;;;;;19.20;99.90;;;;;;5063428;28;20410;-66
2021/07/13 03:05:06;;;;;;;;;;;19.20;99.90;;;;;;5085857;28;20500;-66
2021/07/13 03:07:33;;;;;;;;;;;19.20;99.90;;;;;;5088341;28;20010;-66
2021/07/13 03:10:00;;;;;;;;;;;19.20;99.90;;;;;;5090110;28;19925;-66
2021/07/13 03:12:27;;;;;;;;;;;19.20;99.90;;;;;;5087593;28;19978;-66
2021/07/13 03:14:54;;;;;;;;;;;19.20;99.90;;;;;;5088846;28;19990;-66
2021/07/13 03:17:20;;;;;;;;;;;19.20;99.90;;;;;;5088965;28;20035;-66
2021/07/13 03:19:47;;;;;;;;;;;19.10;99.90;;;;;;5090434;28;19928;-66
2021/07/13 03:22:18;;;;;;;;;;;19.10;99.90;;;;;;5084668;28;20318;-66
2021/07/13 03:24:46;;;;;;;;;;;19.10;99.90;;;;;;5067526;28;19932;-66
2021/07/13 03:27:13;;;;;;;;;;;19.10;99.90;;;;;;5077531;28;19952;-66
2021/07/13 03:29:40;;;;;;;;;;;19.00;99.90;;;;;;5085847;28;20005;-66
2021/07/13 03:32:07;;;;;;;;;;;19.00;99.90;;;;;;5076945;28;19929;-66
2021/07/13 03:34:34;;;;;;;;;;;18.90;99.90;;;;;;5072139;28;19925;-66
2021/07/13 03:37:01;;;;;;;;;;;18.90;99.90;;;;;;5078475;28;19937;-66
2021/07/13 03:39:28;;;;;;;;;;;18.90;99.90;;;;;;5085286;28;19928;-66
2021/07/13 03:41:55;;;;;;;;;;;18.90;99.90;;;;;;5080816;28;20001;-66
2021/07/13 03:44:22;;;;;;;;;;;18.80;99.90;;;;;;5071431;28;20333;-66
2021/07/13 03:46:49;;;;;;;;;;;18.80;99.90;;;;;;5083735;28;19928;-67
2021/07/13 03:49:16;;;;;;;;;;;18.90;99.90;;;;;;5086177;28;19924;-67
2021/07/13 03:51:46;;;;;;;;;;;18.90;99.90;;;;;;5069333;28;19935;-66
2021/07/13 03:54:15;;;;;;;;;;;18.90;99.90;;;;;;5084232;28;20488;-66
2021/07/13 03:56:42;;;;;;;;;;;19.00;99.90;;;;;;5066057;28;19936;-67
2021/07/13 03:59:09;;;;;;;;;;;19.00;99.90;;;;;;5088098;28;19924;-67
2021/07/13 04:01:36;;;;;;;;;;;19.10;99.90;;;;;;5087985;28;19993;-67
2021/07/13 04:04:04;;;;;;;;;;;19.10;99.90;;;;;;5088466;28;19924;-67
2021/07/13 04:06:31;;;;;;;;;;;19.20;99.90;;;;;;5078237;28;19958;-66
2021/07/13 04:08:57;;;;;;;;;;;19.20;99.90;;;;;;5065699;28;20069;-66
2021/07/13 04:11:24;;;;;;;;;;;19.20;99.90;;;;;;5085495;28;19970;-66
2021/07/13 04:13:51;;;;;;;;;;;19.30;99.90;;;;;;5087197;28;20260;-67
2021/07/13 04:16:18;;;;;;;;;;;19.30;99.90;;;;;;5082847;28;19928;-66
2021/07/13 04:18:44;;;;;;;;;;;19.40;99.90;;;;;;5082293;28;19928;-67
2021/07/13 04:21:11;;;;;;;;;;;19.40;99.90;;;;;;5084359;28;19977;-66
2021/07/13 04:23:38;;;;;;;;;;;19.40;99.90;;;;;;5081997;28;19925;-66
2021/07/13 04:26:05;;;;;;;;;;;19.50;99.90;;;;;;5085088;28;19954;-67
2021/07/13 04:28:32;;;;;;;;;;;19.50;99.90;;;;;;5082408;28;19928;-66
2021/07/13 04:31:00;;;;;;;;;;;19.60;99.90;;;;;;5086849;28;19924;-66
2021/07/13 04:33:26;;;;;;;;;;;19.50;99.90;;;;;;5068664;28;19974;-66
2021/07/13 04:35:53;;;;;;;;;;;19.60;99.90;;;;;;5069191;28;19924;-66
2021/07/13 04:38:20;;;;;;;;;;;19.60;99.90;;;;;;5068158;28;19949;-66
2021/07/13 04:40:47;;;;;;;;;;;19.70;99.90;;;;;;5071100;28;20395;-66
2021/07/13 04:43:14;;;;;;;;;;;19.70;99.90;;;;;;5085758;28;19928;-66
2021/07/13 04:45:40;;;;;;;;;;;19.70;99.90;;;;;;5069498;28;19936;-66
2021/07/13 04:48:07;;;;;;;;;;;19.70;99.90;;;;;;5084291;28;19935;-66
2021/07/13 04:50:34;;;;;;;;;;;19.70;99.90;;;;;;5067704;28;20300;-66
2021/07/13 04:53:01;;;;;;;;;;;19.70;99.90;;;;;;5085634;28;19970;-66
2021/07/13 04:55:28;;;;;;;;;;;19.80;99.90;;;;;;5087525;28;20367;-66
2021/07/13 04:57:54;;;;;;;;;;;19.80;99.90;;;;;;5065864;28;20332;-66
2021/07/13 05:00:21;;;;;;;;;;;19.80;99.90;;;;;;5067388;28;20417;-66
2021/07/13 05:02:48;;;;;;;;;;;19.80;99.90;;;;;;5082491;28;20028;-67
2021/07/13 05:05:15;;;;;;;;;;;19.80;99.90;;;;;;5086615;28;19964;-66
2021/07/13 05:07:42;;;;;;;;;;;19.80;99.90;;;;;;5082471;28;19975;-66
2021/07/13 05:10:09;;;;;;;;;;;19.90;99.90;;;;;;5087828;28;20031;-67
2021/07/13 05:12:37;;;;;;;;;;;19.90;99.90;;;;;;5065765;28;20368;-66
2021/07/13 05:15:04;;;;;;;;;;;19.90;99.90;;;;;;5068717;28;19952;-66
2021/07/13 05:17:31;;;;;;;;;;;19.90;99.90;;;;;;5085607;28;19963;-66
2021/07/13 05:19:58;;;;;;;;;;;19.90;99.90;;;;;;5087764;28;20368;-66
2021/07/13 05:22:25;;;;;;;;;;;19.90;99.90;;;;;;5067481;28;19951;-66
2021/07/13 05:24:51;;;;;;;;;;;20.00;99.90;;;;;;5070758;28;20383;-66
2021/07/13 05:27:18;;;;;;;;;;;20.00;99.90;;;;;;5061125;28;19929;-67
2021/07/13 05:29:45;;;;;;;;;;;20.00;99.90;;;;;;5087128;28;20360;-67
2021/07/13 05:32:11;;;;;;;;;;;20.00;99.90;;;;;;5064059;28;20342;-66
2021/07/13 05:34:38;;;;;;;;;;;20.00;99.90;;;;;;5070679;28;20383;-66
2021/07/13 05:37:06;;;;;;;;;;;20.00;99.90;;;;;;5083480;28;20031;-67
2021/07/13 05:39:33;;;;;;;;;;;20.00;99.90;;;;;;5071503;28;20001;-66
2021/07/13 05:42:00;;;;;;;;;;;20.10;99.90;;;;;;5084756;28;20117;-66
2021/07/13 05:44:26;;;;;;;;;;;20.10;99.90;;;;;;5071996;28;20372;-66
2021/07/13 05:46:53;;;;;;;;;;;20.10;99.90;;;;;;5086782;28;20026;-67
2021/07/13 05:49:20;;;;;;;;;;;20.20;99.90;;;;;;5090689;28;19928;-67
2021/07/13 05:51:46;;;;;;;;;;;20.10;99.90;;;;;;5089450;28;20388;-67
2021/07/13 05:54:14;;;;;;;;;;;20.20;99.90;;;;;;5092386;28;20303;-67
2021/07/13 05:56:41;;;;;;;;;;;20.20;99.90;;;;;;5071705;28;20084;-67
2021/07/13 05:59:07;;;;;;;;;;;20.20;99.90;;;;;;5090165;28;19983;-67
2021/07/13 06:01:34;;;;;;;;;;;20.20;99.90;;;;;;5085903;28;20378;-67
2021/07/13 06:04:00;;;;;;;;;;;20.20;99.90;;;;;;5088246;28;19934;-66
2021/07/13 06:06:27;;;;;;;;;;;20.30;99.90;;;;;;5081969;28;19986;-66
2021/07/13 06:08:54;;;;;;;;;;;20.20;99.90;;;;;;5071106;28;19994;-66
2021/07/13 06:11:21;;;;;;;;;;;20.30;99.90;;;;;;5071814;28;19992;-66
2021/07/13 06:13:47;;;;;;;;;;;20.30;99.90;;;;;;5085828;28;19977;-67
2021/07/13 06:16:14;;;;;;;;;;;20.30;99.90;;;;;;5085197;28;19943;-66
2021/07/13 06:18:41;;;;;;;;;;;20.30;99.90;;;;;;5087999;28;19989;-67
2021/07/13 06:21:09;;;;;;;;;;;20.30;99.90;;;;;;5086785;28;19924;-67
2021/07/13 06:23:36;;;;;;;;;;;20.40;99.90;;;;;;5086302;28;20434;-67
2021/07/13 06:26:03;;;;;;;;;;;20.40;99.90;;;;;;5082560;28;23550;-67
2021/07/13 06:28:29;;;;;;;;;;;20.30;99.90;;;;;;5081436;28;19986;-67
2021/07/13 06:30:56;;;;;;;;;;;20.40;99.90;;;;;;5088068;28;20032;-66
2021/07/13 06:33:23;;;;;;;;;;;20.40;99.90;;;;;;5084250;28;19924;-67
2021/07/13 06:37:07;;;;;;;;;;;20.40;99.90;;;;;;5111768;27;19931;-68
2021/07/13 06:39:34;;;;;;;;;;;20.40;99.90;;;;;;5109505;28;19924;-68
2021/07/13 06:42:00;;;;;;;;;;;20.40;99.90;;;;;;5110706;28;20108;-68
2021/07/13 06:44:27;;;;;;;;;;;20.40;99.90;;;;;;5107895;28;19977;-68
2021/07/13 06:46:54;;;;;;;;;;;20.40;99.90;;;;;;5113564;28;19990;-68
2021/07/13 06:49:20;;;;;;;;;;;20.40;99.90;;;;;;5115250;28;20388;-68
2021/07/13 06:51:47;;;;;;;;;;;20.40;99.90;;;;;;4982658;27;75757;-68
2021/07/13 06:54:14;;;;;;;;;;;20.40;99.90;;;;;;5065944;28;19975;-68
2021/07/13 06:56:41;;;;;;;;;;;20.40;99.90;;;;;;5072479;28;20241;-68
2021/07/13 06:59:08;;;;;;;;;;;20.40;99.90;;;;;;5073432;28;20422;-68
2021/07/13 07:01:34;;;;;;;;;;;20.40;99.90;;;;;;5075993;28;19980;-68
2021/07/13 07:04:01;;;;;;;;;;;20.40;99.90;;;;;;5067167;28;20287;-68
2021/07/13 07:06:29;;;;;;;;;;;20.40;99.90;;;;;;5074406;28;19970;-68
2021/07/13 07:08:56;;;;;;;;;;;20.40;99.90;;;;;;5016996;27;80866;-68
2021/07/13 07:12:13;;;;;;;;;;;20.40;99.90;;;;;;6397404;27;20006;-68
2021/07/13 07:15:15;;;;;;;;;;;20.40;99.90;;;;;;6395204;27;20378;-68
2021/07/13 07:18:17;;;;;;;;;;;20.50;99.90;;;;;;6407496;27;19968;-68
2021/07/13 07:21:19;;;;;;;;;;;20.50;99.90;;;;;;6406974;27;19930;-68
2021/07/13 07:24:20;;;;;;;;;;;20.50;99.90;;;;;;6402694;27;19978;-68
2021/07/13 07:27:22;;;;;;;;;;;20.50;99.90;;;;;;6371350;27;19938;-68
2021/07/13 07:30:28;;;;;;;;;;;20.50;99.90;;;;;;6380608;27;20030;-68
2021/07/13 07:33:30;;;;;;;;;;;20.50;99.90;;;;;;6384866;27;20036;-68
2021/07/13 07:36:32;;;;;;;;;;;20.60;99.90;;;;;;6363965;27;19923;-68
2021/07/13 07:39:34;;;;;;;;;;;20.60;99.90;;;;;;6387450;27;19977;-68
2021/07/13 07:42:36;;;;;;;;;;;20.60;99.90;;;;;;6318763;27;20320;-68
2021/07/13 07:45:38;;;;;;;;;;;20.60;99.90;;;;;;6306028;28;19950;-68
2021/07/13 07:48:39;;;;;;;;;;;20.60;99.90;;;;;;6305992;28;20192;-68
2021/07/13 07:51:41;;;;;;;;;;;20.60;99.90;;;;;;6312003;28;19958;-68
2021/07/13 07:54:43;;;;;;;;;;;20.70;99.90;;;;;;6306553;28;20004;-68
2021/07/13 07:57:47;;;;;;;;;;;20.60;99.90;;;;;;6308935;28;19964;-68
2021/07/13 08:00:49;;;;;;;;;;;20.70;99.90;;;;;;6308773;28;20390;-68
2021/07/13 08:03:50;;;;;;;;;;;20.70;99.90;;;;;;6306893;28;19995;-68
2021/07/13 08:06:52;;;;;;;;;;;20.70;99.90;;;;;;6308064;28;19932;-68
2021/07/13 08:09:54;;;;;;;;;;;20.70;99.90;;;;;;6308730;28;19928;-68
2021/07/13 08:12:56;;;;;;;;;;;20.80;99.90;;;;;;6307001;28;19925;-68
2021/07/13 08:15:58;;;;;;;;;;;20.80;99.90;;;;;;6307844;28;19978;-68
2021/07/13 08:18:59;;;;;;;;;;;20.80;99.90;;;;;;6306658;28;20404;-68
2021/07/13 08:22:10;;;;;;;;;;;20.80;99.90;;;;;;6297311;28;19925;-68
2021/07/13 08:25:12;;;;;;;;;;;20.80;99.90;;;;;;6306452;28;20399;-68
2021/07/13 08:28:14;;;;;;;;;;;20.80;99.90;;;;;;6291107;28;19970;-68
2021/07/13 08:31:15;;;;;;;;;;;20.80;99.90;;;;;;6289679;28;19996;-68
2021/07/13 08:34:17;;;;;;;;;;;20.80;99.90;;;;;;6290696;28;20018;-68
2021/07/13 08:37:21;;;;;;;;;;;20.80;99.90;;;;;;6289191;28;19940;-68
2021/07/13 08:40:24;;;;;;;;;;;20.80;99.90;;;;;;6305895;28;20007;-68
2021/07/13 08:43:26;;;;;;;;;;;20.90;99.90;;;;;;6290672;28;19932;-68
2021/07/13 08:46:29;;;;;;;;;;;20.90;99.90;;;;;;6291070;28;19959;-68
2021/07/13 08:49:39;;;;;;;;;;;20.80;99.90;;;;;;6275540;28;19977;-68
2021/07/13 08:52:42;;;;;;;;;;;20.80;99.90;;;;;;6291098;28;19946;-68
2021/07/13 08:55:45;;;;;;;;;;;20.70;99.90;;;;;;6284912;28;19932;-68
2021/07/13 08:58:47;;;;;;;;;;;20.70;99.90;;;;;;6293140;28;20037;-68
2021/07/13 09:01:49;;;;;;;;;;;20.70;99.90;;;;;;6289922;28;19944;-68
2021/07/13 09:04:51;;;;;;;;;;;20.70;99.90;;;;;;6294313;28;20798;-68
2021/07/13 09:07:53;;;;;;;;;;;20.60;99.90;;;;;;6292457;28;19925;-68
2021/07/13 09:10:58;;;;;;;;;;;20.60;99.90;;;;;;6294324;28;19928;-68
2021/07/13 09:14:02;;;;;;;;;;;20.60;99.90;;;;;;6289563;28;20111;-68
2021/07/13 09:17:04;;;;;;;;;;;20.60;99.90;;;;;;6287943;28;20425;-68
2021/07/13 09:20:21;;;;;;;;;;;20.60;99.90;;;;;;6289535;28;19931;-68
2021/07/13 09:23:22;;;;;;;;;;;20.60;99.90;;;;;;6289275;28;20288;-68
2021/07/13 09:26:43;;;;;;;;;;;20.60;99.90;;;;;;6286583;28;20391;-68
2021/07/13 09:29:47;;;;;;;;;;;20.60;99.90;;;;;;6289944;28;19931;-68
2021/07/13 09:32:49;;;;;;;;;;;20.60;99.90;;;;;;6288675;28;20348;-68
2021/07/13 09:35:57;;;;;;;;;;;20.60;99.90;;;;;;6289672;28;19935;-68
2021/07/13 09:38:59;;;;;;;;;;;20.60;99.90;;;;;;6290258;28;19959;-68
2021/07/13 09:42:00;;;;;;;;;;;20.60;99.90;;;;;;6290469;28;20036;-68
2021/07/13 09:45:22;;;;;;;;;;;20.60;99.90;;;;;;6286741;28;20436;-68
2021/07/13 09:48:24;;;;;;;;;;;20.60;99.90;;;;;;6288181;28;19932;-68
2021/07/13 09:51:26;;;;;;;;;;;20.70;99.90;;;;;;6296419;28;19997;-66
2021/07/13 09:54:46;;;;;;;;;;;20.70;99.90;;;;;;6289975;28;19944;-65
2021/07/13 09:57:48;;;;;;;;;;;20.70;99.90;;;;;;6289698;28;20368;-66
2021/07/13 10:00:56;;;;;;;;;;;20.70;99.90;;;;;;6286435;28;19970;-66
2021/07/13 10:03:57;;;;;;;;;;;20.80;99.90;;;;;;6286049;28;20280;-66
2021/07/13 10:07:02;;;;;;;;;;;20.80;99.90;;;;;;6285289;28;20271;-66
2021/07/13 10:10:05;;;;;;;;;;;20.80;99.90;;;;;;6285816;28;19986;-66
2021/07/13 10:13:07;;;;;;;;;;;20.80;99.90;;;;;;6286059;28;20368;-66
2021/07/13 10:16:09;;;;;;;;;;;20.90;99.90;;;;;;6285158;28;20433;-66
2021/07/13 10:19:11;;;;;;;;;;;20.90;99.90;;;;;;6288875;28;20033;-66
2021/07/13 10:22:13;;;;;;;;;;;20.80;99.90;;;;;;6303178;28;19932;-66
2021/07/13 10:25:15;;;;;;;;;;;20.80;99.90;;;;;;6287269;28;20341;-66
2021/07/13 10:28:21;;;;;;;;;;;20.80;99.90;;;;;;6289512;28;19940;-66
2021/07/13 10:31:36;;;;;;;;;;;20.80;99.90;;;;;;6287499;28;20004;-66
2021/07/13 10:34:48;;;;;;;;;;;20.80;99.90;;;;;;6287602;28;19932;-66
2021/07/13 10:37:56;;;;;;;;;;;20.80;99.90;;;;;;6285849;28;19951;-66
2021/07/13 10:40:59;;;;;;;;;;;20.80;99.90;;;;;;6288585;28;19932;-66
2021/07/13 10:44:01;;;;;;;;;;;20.80;99.90;;;;;;6288153;28;19936;-66
2021/07/13 10:47:21;;;;;;;;;;;20.80;99.90;;;;;;6289456;28;20023;-66
2021/07/13 10:50:23;;;;;;;;;;;20.80;99.90;;;;;;6287156;28;19928;-66
2021/07/13 10:53:29;;;;;;;;;;;20.80;99.90;;;;;;6289296;28;20003;-66
2021/07/13 10:56:31;;;;;;;;;;;20.70;99.90;;;;;;6288806;28;19939;-66
2021/07/13 10:59:42;;;;;;;;;;;20.80;99.90;;;;;;6290155;28;19924;-66
2021/07/13 11:02:44;;;;;;;;;;;20.70;99.90;;;;;;6289040;28;19936;-66
2021/07/13 11:05:49;;;;;;;;;;;20.70;99.90;;;;;;6288697;28;20338;-66
2021/07/13 11:08:51;;;;;;;;;;;20.70;99.90;;;;;;6291615;28;19931;-68
2021/07/13 11:12:01;;;;;;;;;;;20.70;99.90;;;;;;6290054;28;19978;-68
2021/07/13 11:15:02;;;;;;;;;;;20.70;99.90;;;;;;6303178;28;20008;-68
2021/07/13 11:18:04;;;;;;;;;;;20.70;99.90;;;;;;6290472;28;19925;-68
2021/07/13 11:21:15;;;;;;;;;;;20.70;99.90;;;;;;6290426;28;19935;-68
2021/07/13 11:24:18;;;;;;;;;;;20.70;99.90;;;;;;6287823;28;19924;-68
2021/07/13 11:27:20;;;;;;;;;;;20.80;99.90;;;;;;6288944;28;20412;-68
2021/07/13 11:30:21;;;;;;;;;;;20.70;99.90;;;;;;6290239;28;19946;-68
2021/07/13 11:33:30;;;;;;;;;;;20.80;99.90;;;;;;6292424;28;20337;-68
2021/07/13 11:36:43;;;;;;;;;;;20.80;99.90;;;;;;6287606;28;19932;-68
2021/07/13 11:39:44;;;;;;;;;;;20.80;99.90;;;;;;6289447;28;20006;-68
2021/07/13 11:42:59;;;;;;;;;;;20.80;99.90;;;;;;6287269;28;19928;-68
2021/07/13 11:46:13;;;;;;;;;;;20.80;99.90;;;;;;6287805;28;19928;-68
2021/07/13 11:49:25;;;;;;;;;;;20.80;99.90;;;;;;6288988;28;19971;-68
2021/07/13 11:52:28;;;;;;;;;;;20.80;99.90;;;;;;6286601;28;19931;-68
2021/07/13 11:55:30;;;;;;;;;;;20.80;99.90;;;;;;6287525;28;19928;-68
2021/07/13 11:58:32;;;;;;;;;;;20.80;99.90;;;;;;6293177;28;19928;-68
2021/07/13 12:01:34;;;;;;;;;;;20.80;99.90;;;;;;6292064;28;20383;-66
2021/07/13 12:04:37;;;;;;;;;;;20.80;99.90;;;;;;6294446;28;20655;-67
2021/07/13 12:07:45;;;;;;;;;;;20.80;99.90;;;;;;6295750;28;20137;-66
2021/07/13 12:10:51;;;;;;;;;;;20.80;99.90;;;;;;6294175;28;20061;-66
2021/07/13 12:13:53;;;;;;;;;;;20.80;99.90;;;;;;6292131;28;20302;-67
2021/07/13 12:16:57;;;;;;;;;;;20.80;99.90;;;;;;6290091;28;19924;-67
2021/07/13 12:19:59;;;;;;;;;;;20.80;99.90;;;;;;6296307;28;20421;-66
2021/07/13 12:23:01;;;;;;;;;;;20.70;99.90;;;;;;6294092;28;19996;-67
2021/07/13 12:26:21;;;;;;;;;;;20.80;99.90;;;;;;6291797;28;19924;-67
2021/07/13 12:29:33;;;;;;;;;;;20.80;99.90;;;;;;6292648;28;19942;-66
2021/07/13 12:32:35;;;;;;;;;;;20.80;99.90;;;;;;6291842;28;20600;-66
2021/07/13 12:35:37;;;;;;;;;;;20.80;99.90;;;;;;6293659;28;20001;-66
2021/07/13 12:38:39;;;;;;;;;;;20.80;99.90;;;;;;6292915;28;19929;-66
2021/07/13 12:41:40;;;;;;;;;;;20.90;99.90;;;;;;6293792;28;20023;-66
2021/07/13 12:44:42;;;;;;;;;;;20.90;99.90;;;;;;6293996;28;19935;-66
2021/07/13 12:47:48;;;;;;;;;;;20.90;99.90;;;;;;6292436;28;19943;-65
2021/07/13 12:50:50;;;;;;;;;;;20.90;99.90;;;;;;6297322;28;19924;-69
2021/07/13 12:54:08;;;;;;;;;;;21.00;99.90;;;;;;6294688;28;19933;-66
2021/07/13 12:57:28;;;;;;;;;;;21.00;99.90;;;;;;6293094;28;20379;-66
2021/07/13 13:00:30;;;;;;;;;;;21.00;99.90;;;;;;6295478;28;20390;-66
2021/07/13 13:03:34;;;;;;;;;;;21.00;99.90;;;;;;6291417;28;20322;-66
2021/07/13 13:06:37;;;;;;;;;;;20.90;99.90;;;;;;6218365;28;19924;-66
2021/07/13 13:09:39;;;;;;;;;;;20.90;99.90;;;;;;6287701;28;19932;-66
2021/07/13 13:12:51;;;;;;;;;;;20.90;99.90;;;;;;6290345;28;20384;-66
2021/07/13 13:15:53;;;;;;;;;;;20.90;99.90;;;;;;6292836;28;20402;-66
2021/07/13 13:18:55;;;;;;;;;;;21.00;99.90;;;;;;6293308;28;19932;-66
2021/07/13 13:21:57;;;;;;;;;;;21.00;99.90;;;;;;6291463;28;19932;-66
2021/07/13 13:24:59;;;;;;;;;;;21.00;99.90;;;;;;6292043;28;19925;-66
2021/07/13 13:28:00;;;;;;;;;;;21.00;99.90;;;;;;6288410;28;19989;-67
2021/07/13 13:31:02;;;;;;;;;;;21.00;99.90;;;;;;6308609;28;20292;-69
2021/07/13 13:34:04;;;;;;;;;;;21.00;99.90;;;;;;6289507;28;20379;-69
2021/07/13 13:37:09;;;;;;;;;;;21.10;99.90;;;;;;6291715;28;20303;-69
2021/07/13 13:40:11;;;;;;;;;;;21.10;99.90;;;;;;6292849;28;19933;-68
2021/07/13 13:43:13;;;;;;;;;;;21.10;99.90;;;;;;6289266;28;19928;-68
2021/07/13 13:46:14;;;;;;;;;;;21.10;99.90;;;;;;6306738;28;19932;-69
2021/07/13 13:49:16;;;;;;;;;;;21.10;99.90;;;;;;6289339;28;19924;-67
2021/07/13 13:52:18;;;;;;;;;;;21.10;99.90;;;;;;6290662;28;20374;-68
2021/07/13 13:55:20;;;;;;;;;;;21.10;99.90;;;;;;6289337;28;19924;-68
2021/07/13 13:58:21;;;;;;;;;;;21.10;99.90;;;;;;6288856;28;19928;-68
2021/07/13 14:01:23;;;;;;;;;;;21.00;99.90;;;;;;6289777;28;20031;-68
2021/07/13 14:04:25;;;;;;;;;;;21.00;99.90;;;;;;6291488;28;19932;-69
2021/07/13 14:07:26;;;;;;;;;;;21.00;99.90;;;;;;6289947;28;19935;-68
2021/07/13 14:10:28;;;;;;;;;;;21.10;99.90;;;;;;6290459;28;20374;-68
2021/07/13 14:13:30;;;;;;;;;;;21.00;99.90;;;;;;6292248;28;19985;-67
2021/07/13 14:16:31;;;;;;;;;;;21.00;99.90;;;;;;6290647;28;20072;-68
2021/07/13 14:19:34;;;;;;;;;;;21.00;99.90;;;;;;6289871;28;19962;-68
2021/07/13 14:22:36;;;;;;;;;;;21.10;99.90;;;;;;6289347;28;19960;-68
2021/07/13 14:25:38;;;;;;;;;;;21.00;99.90;;;;;;6307431;28;19931;-68
2021/07/13 14:28:39;;;;;;;;;;;21.00;99.90;;;;;;6292566;28;20275;-66
2021/07/13 14:31:41;;;;;;;;;;;21.00;99.90;;;;;;6288800;28;19996;-68
2021/07/13 14:34:43;;;;;;;;;;;20.90;99.90;;;;;;6295312;28;19931;-68
2021/07/13 14:37:44;;;;;;;;;;;20.90;99.90;;;;;;6287882;28;20348;-68
2021/07/13 14:40:46;;;;;;;;;;;21.00;99.90;;;;;;6290353;28;19939;-67
2021/07/13 14:43:48;;;;;;;;;;;21.00;99.90;;;;;;6287934;28;20370;-68
2021/07/13 14:46:49;;;;;;;;;;;21.00;99.90;;;;;;6290297;28;19928;-68
2021/07/13 14:49:53;;;;;;;;;;;21.00;99.90;;;;;;6293216;28;20275;-68
2021/07/13 14:52:54;;;;;;;;;;;21.10;99.90;;;;;;6287875;28;19932;-68
2021/07/13 14:55:56;;;;;;;;;;;21.10;99.90;;;;;;6288356;28;19935;-68
2021/07/13 14:58:58;;;;;;;;;;;21.20;99.90;;;;;;6287747;28;19924;-68
2021/07/13 15:01:59;;;;;;;;;;;21.20;99.90;;;;;;6289060;28;19968;-68
2021/07/13 15:05:01;;;;;;;;;;;21.30;99.90;;;;;;6286781;28;20657;-68
2021/07/13 15:08:03;;;;;;;;;;;21.30;99.90;;;;;;6287966;28;20283;-67
2021/07/13 15:11:05;;;;;;;;;;;21.40;99.90;;;;;;6289508;28;19989;-68
2021/07/13 15:14:06;;;;;;;;;;;21.40;99.90;;;;;;6286637;28;19977;-68
2021/07/13 15:17:08;;;;;;;;;;;21.40;99.90;;;;;;6285610;28;19943;-68
2021/07/13 15:20:11;;;;;;;;;;;21.50;99.90;;;;;;6287555;28;20069;-68
2021/07/13 15:23:12;;;;;;;;;;;21.50;99.90;;;;;;6288456;28;20271;-68
2021/07/13 15:26:14;;;;;;;;;;;21.50;99.90;;;;;;6286467;28;19928;-68
2021/07/13 15:29:16;;;;;;;;;;;21.50;99.90;;;;;;6287958;28;20296;-68
2021/07/13 15:32:18;;;;;;;;;;;21.50;99.90;;;;;;6290169;28;20553;-68
2021/07/13 15:35:20;;;;;;;;;;;21.50;99.90;;;;;;6291551;28;19935;-68
2021/07/13 15:38:23;;;;;;;;;;;21.40;99.90;;;;;;6290468;28;19992;-68
2021/07/13 15:41:25;;;;;;;;;;;21.40;99.90;;;;;;6295569;28;19978;-68
2021/07/13 15:44:27;;;;;;;;;;;21.40;99.90;;;;;;6295548;28;19936;-68
2021/07/13 15:47:29;;;;;;;;;;;21.40;99.90;;;;;;6292595;28;20269;-68
2021/07/13 15:50:30;;;;;;;;;;;21.30;99.90;;;;;;6295614;28;19984;-68
2021/07/13 15:53:32;;;;;;;;;;;21.30;99.90;;;;;;6293817;28;20303;-68
2021/07/13 15:56:34;;;;;;;;;;;21.30;99.90;;;;;;6292761;28;20359;-68
2021/07/13 15:59:36;;;;;;;;;;;21.30;99.90;;;;;;6292627;28;20335;-68
2021/07/13 16:02:38;;;;;;;;;;;21.30;99.90;;;;;;6291908;28;19928;-69
2021/07/13 16:05:40;;;;;;;;;;;21.30;99.90;;;;;;6307742;28;19932;-68